Nan May — D5KO8 — position and weather

sailwx.info

Track history (hours):
 
Tides and Currents Weather Stations Pressure Air Temp Water Temp Dewpoint Dewpoint Depression Visibility Wind Speed Wind Dir Waves Ship Positions

Nan May

Last reported at 2018-Apr-30 05:39 UTC. Time now 2018-May-20 17:48 UTC.
Position N 01°26' E 103°13'.
Warning: this ship's position is 20 days out of date.

Length 228 m; draft 13.7 m.

Type: Cargo ship. MMSI: 636017371.

Date/timePositionNaut miles runAvg speedWind from/ knotsBaromVisibWave heightAir tempDewpointWater temp
2018-Apr-30 05:39N 01°26' E 103°13'413.1
2018-Apr-30 05:21N 01°23' E 103°16'512.8
2018-Apr-30 04:56N 01°19' E 103°20'612.4
2018-Apr-30 04:28N 01°15' E 103°24'611.9
2018-Apr-30 03:59N 01°13' E 103°29'612.7
2018-Apr-30 03:30N 01°12' E 103°35'712.8
2018-Apr-30 02:59N 01°10' E 103°42'611.4
2018-Apr-30 02:30N 01°10' E 103°47'714.1
2018-Apr-30 02:00N 01°13' E 103°54'5 9.2
2018-Apr-30 01:30N 01°16' E 103°57'1 1.6
2018-Apr-30 00:54N 01°17' E 103°58'0 0.0
2018-Apr-30 00:27N 01°17' E 103°58'0 0.0
2018-Apr-29 23:54N 01°17' E 103°58'0 0.1
2018-Apr-29 23:30N 01°17' E 103°58'0 0.2
2018-Apr-29 22:57N 01°17' E 103°58'0 0.2
2018-Apr-29 22:24N 01°17' E 103°58'0 0.0
2018-Apr-29 21:54N 01°17' E 103°58'0 0.1
2018-Apr-29 20:42N 01°17' E 103°58'0 0.0
2018-Apr-29 20:30N 01°17' E 103°58'0 0.0
2018-Apr-29 19:54N 01°17' E 103°58'0 0.0
2018-Apr-29 19:24N 01°17' E 103°58'0 0.0
2018-Apr-29 19:00N 01°17' E 103°58'0 0.1
2018-Apr-29 18:18N 01°17' E 103°58'0 0.2
2018-Apr-29 18:00N 01°17' E 103°58'0 0.1
2018-Apr-29 17:12N 01°17' E 103°58'0 0.2
2018-Apr-29 16:57N 01°17' E 103°58'0 0.1
2018-Apr-29 16:30N 01°17' E 103°58'0 0.0
2018-Apr-29 15:51N 01°17' E 103°58'0 0.0
2018-Apr-29 15:30N 01°17' E 103°58'0 0.5
2018-Apr-29 14:58N 01°16' E 103°58'1 1.8
2018-Apr-29 14:31N 01°16' E 103°58'2 4.3
2018-Apr-29 13:59N 01°16' E 103°60'4 7.5
2018-Apr-29 13:30N 01°17' E 104°03'4 7.1
2018-Apr-29 13:00N 01°17' E 104°07'713.7
2018-Apr-29 12:30N 01°17' E 104°14'712.7
2018-Apr-29 11:59N 01°19' E 104°20'613.1
2018-Apr-29 11:29N 01°23' E 104°25'612.5
2018-Apr-29 10:59N 01°26' E 104°31'1813.0
2018-Apr-29 09:34N 01°20' E 104°48'  
Track history (hours):
 
Tides and Currents Weather Stations Pressure Air Temp Water Temp Dewpoint Dewpoint Depression Visibility Wind Speed Wind Dir Waves Ship Positions

Nan May

Last reported at 2018-Apr-30 05:39 UTC. Time now 2018-May-20 17:48 UTC.
Position N 01°26' E 103°13'.
Warning: this ship's position is 20 days out of date.

Length 228 m; draft 13.7 m.

Type: Cargo ship. MMSI: 636017371.

Date/timePositionNaut miles runAvg speedWind from/ knotsBaromVisibWave heightAir tempDewpointWater temp
2018-Apr-30 05:39N 01°26' E 103°13'413.1
2018-Apr-30 05:21N 01°23' E 103°16'512.8
2018-Apr-30 04:56N 01°19' E 103°20'612.4
2018-Apr-30 04:28N 01°15' E 103°24'611.9
2018-Apr-30 03:59N 01°13' E 103°29'612.7
2018-Apr-30 03:30N 01°12' E 103°35'712.8
2018-Apr-30 02:59N 01°10' E 103°42'611.4
2018-Apr-30 02:30N 01°10' E 103°47'714.1
2018-Apr-30 02:00N 01°13' E 103°54'5 9.2
2018-Apr-30 01:30N 01°16' E 103°57'1 1.6
2018-Apr-30 00:54N 01°17' E 103°58'0 0.0
2018-Apr-30 00:27N 01°17' E 103°58'0 0.0
2018-Apr-29 23:54N 01°17' E 103°58'0 0.1
2018-Apr-29 23:30N 01°17' E 103°58'0 0.2
2018-Apr-29 22:57N 01°17' E 103°58'0 0.2
2018-Apr-29 22:24N 01°17' E 103°58'0 0.0
2018-Apr-29 21:54N 01°17' E 103°58'0 0.1
2018-Apr-29 20:42N 01°17' E 103°58'0 0.0
2018-Apr-29 20:30N 01°17' E 103°58'0 0.0
2018-Apr-29 19:54N 01°17' E 103°58'0 0.0
2018-Apr-29 19:24N 01°17' E 103°58'0 0.0
2018-Apr-29 19:00N 01°17' E 103°58'0 0.1
2018-Apr-29 18:18N 01°17' E 103°58'0 0.2
2018-Apr-29 18:00N 01°17' E 103°58'0 0.1
2018-Apr-29 17:12N 01°17' E 103°58'0 0.2
2018-Apr-29 16:57N 01°17' E 103°58'0 0.1
2018-Apr-29 16:30N 01°17' E 103°58'0 0.0
2018-Apr-29 15:51N 01°17' E 103°58'0 0.0
2018-Apr-29 15:30N 01°17' E 103°58'0 0.5
2018-Apr-29 14:58N 01°16' E 103°58'1 1.8
2018-Apr-29 14:31N 01°16' E 103°58'2 4.3
2018-Apr-29 13:59N 01°16' E 103°60'4 7.5
2018-Apr-29 13:30N 01°17' E 104°03'4 7.1
2018-Apr-29 13:00N 01°17' E 104°07'713.7
2018-Apr-29 12:30N 01°17' E 104°14'712.7
2018-Apr-29 11:59N 01°19' E 104°20'613.1
2018-Apr-29 11:29N 01°23' E 104°25'612.5
2018-Apr-29 10:59N 01°26' E 104°31'1813.0
2018-Apr-29 09:34N 01°20' E 104°48'  

Dump ship's entire track history